createdAt,value
2023-04-15T00:01:37.393Z,101018.81
2023-04-15T00:04:05.310Z,101015.16
2023-04-15T00:06:32.196Z,101028.97
2023-04-15T00:08:59.361Z,101024.78
2023-04-15T00:11:26.515Z,101018.56
2023-04-15T00:13:53.278Z,101022.19
2023-04-15T00:16:20.132Z,101024.53
2023-04-15T00:18:47.001Z,101029.97
2023-04-15T00:21:13.953Z,101023.25
2023-04-15T00:23:41.371Z,101028.16
2023-04-15T00:26:09.045Z,101025.56
2023-04-15T00:28:36.260Z,101022.44
2023-04-15T00:31:03.246Z,101026.84
2023-04-15T00:33:30.254Z,101018.78
2023-04-15T00:35:57.316Z,101025.81
2023-04-15T00:38:24.372Z,101025.81
2023-04-15T00:40:51.353Z,101023.16
2023-04-15T00:43:18.738Z,101028.09
2023-04-15T00:45:47.294Z,101021.84
2023-04-15T00:48:14.606Z,101029.88
2023-04-15T00:50:41.474Z,101033.00
2023-04-15T00:53:08.319Z,101043.09
2023-04-15T00:55:36.415Z,101029.81
2023-04-15T00:58:03.312Z,101030.34
2023-04-15T01:00:31.422Z,101030.84
2023-04-15T01:02:58.658Z,101031.34
2023-04-15T01:05:25.753Z,101039.88
2023-04-15T01:07:53.242Z,101031.56
2023-04-15T01:10:19.996Z,101037.53
2023-04-15T01:12:46.994Z,101033.63
2023-04-15T01:15:13.849Z,101034.91
2023-04-15T01:17:40.719Z,101031.25
2023-04-15T01:20:10.706Z,101031.78
2023-04-15T01:22:38.498Z,101034.63
2023-04-15T01:25:19.866Z,101031.25
2023-04-15T01:27:46.632Z,101035.66
2023-04-15T01:30:13.413Z,101030.19
2023-04-15T01:32:40.271Z,101028.13
2023-04-15T01:35:07.882Z,101033.53
2023-04-15T01:37:34.951Z,101037.44
2023-04-15T01:40:01.842Z,101028.31
2023-04-15T01:42:28.812Z,101027.78
2023-04-15T01:44:56.033Z,101036.84
2023-04-15T01:47:22.897Z,101032.16
2023-04-15T01:49:49.796Z,101030.56
2023-04-15T01:52:16.654Z,101038.13
2023-04-15T01:54:43.559Z,101027.97
2023-04-15T01:57:10.737Z,101031.06
2023-04-15T01:59:37.583Z,101038.81
2023-04-15T02:02:05.599Z,101036.75
2023-04-15T02:04:32.853Z,101030.78
2023-04-15T02:06:59.962Z,101039.59
2023-04-15T02:09:26.839Z,101037.75
2023-04-15T02:11:54.438Z,101041.88
2023-04-15T02:14:21.592Z,101042.34
2023-04-15T02:16:48.504Z,101042.03
2023-04-15T02:19:16.357Z,101049.28
2023-04-15T02:21:43.260Z,101038.91
2023-04-15T02:24:10.288Z,101045.38
2023-04-15T02:26:36.989Z,101050.50
2023-04-15T02:29:04.337Z,101057.97
2023-04-15T02:31:34.300Z,101048.34
2023-04-15T02:34:03.144Z,101053.75
2023-04-15T02:36:31.672Z,101057.94
2023-04-15T02:38:58.801Z,101060.78
2023-04-15T02:41:28.211Z,101061.25
2023-04-15T02:43:55.164Z,101071.06
2023-04-15T02:46:23.271Z,101068.97
2023-04-15T02:48:51.171Z,101072.34
2023-04-15T02:51:20.901Z,101079.03
2023-04-15T02:53:49.126Z,101073.56
2023-04-15T02:56:17.504Z,101073.28
2023-04-15T02:58:45.940Z,101084.13
2023-04-15T03:01:12.970Z,101086.19
2023-04-15T03:03:40.047Z,101089.78
2023-04-15T03:06:07.112Z,101085.09
2023-04-15T03:08:33.881Z,101080.38
2023-04-15T03:11:02.751Z,101091.56
2023-04-15T03:13:29.641Z,101084.25
2023-04-15T03:15:56.763Z,101092.03
2023-04-15T03:18:23.853Z,101093.31
2023-04-15T03:20:50.876Z,101097.72
2023-04-15T03:23:17.788Z,101094.84
2023-04-15T03:25:45.472Z,101096.13
2023-04-15T03:28:12.597Z,101091.72
2023-04-15T03:30:39.403Z,101095.34
2023-04-15T03:33:06.265Z,101095.34
2023-04-15T03:35:33.132Z,101099.22
2023-04-15T03:37:59.844Z,101098.66
2023-04-15T03:40:27.148Z,101100.22
2023-04-15T03:42:53.937Z,101097.88
2023-04-15T03:45:20.716Z,101102.50
2023-04-15T03:47:47.761Z,101109.97
2023-04-15T03:50:14.850Z,101114.88
2023-04-15T03:52:41.709Z,101123.09
2023-04-15T03:55:09.852Z,101121.25
2023-04-15T03:57:39.290Z,101127.91
2023-04-15T04:00:12.089Z,101134.09
2023-04-15T04:02:39.370Z,101125.25
2023-04-15T04:05:06.481Z,101132.47
2023-04-15T04:07:33.500Z,101136.31
2023-04-15T04:10:00.309Z,101146.91
2023-04-15T04:12:27.134Z,101143.78
2023-04-15T04:14:53.997Z,101140.66
2023-04-15T04:17:21.246Z,101145.03
2023-04-15T04:19:48.154Z,101143.19
2023-04-15T04:22:15.024Z,101152.44
2023-04-15T04:24:41.849Z,101154.47
2023-04-15T04:27:09.555Z,101159.56
2023-04-15T04:29:36.330Z,101160.59
2023-04-15T04:32:03.180Z,101153.84
2023-04-15T04:34:29.960Z,101159.03
2023-04-15T04:36:56.809Z,101169.38
2023-04-15T04:39:23.729Z,101176.13
2023-04-15T04:41:52.384Z,101179.72
2023-04-15T04:44:19.594Z,101189.53
2023-04-15T04:46:46.464Z,101186.38
2023-04-15T04:49:13.315Z,101189.19
2023-04-15T04:51:40.517Z,101193.38
2023-04-15T04:54:07.973Z,101202.91
2023-04-15T04:56:34.874Z,101206.53
2023-04-15T04:59:02.202Z,101207.53
2023-04-15T05:01:29.252Z,101213.75
2023-04-15T05:03:56.673Z,101209.13
2023-04-15T05:06:23.729Z,101213.25
2023-04-15T05:08:51.046Z,101214.47
2023-04-15T05:11:17.858Z,101224.94
2023-04-15T05:13:44.849Z,101225.00
2023-04-15T05:16:11.915Z,101229.44
2023-04-15T05:18:38.839Z,101231.44
2023-04-15T05:21:06.128Z,101239.09
2023-04-15T05:23:32.875Z,101237.59
2023-04-15T05:25:59.651Z,101237.03
2023-04-15T05:28:26.359Z,101234.75
2023-04-15T05:30:53.243Z,101250.34
2023-04-15T05:33:20.169Z,101250.72
2023-04-15T05:35:46.978Z,101254.72
2023-04-15T05:38:13.760Z,101262.81
2023-04-15T05:40:40.784Z,101268.59
2023-04-15T05:43:07.557Z,101267.03
2023-04-15T05:45:34.401Z,101270.16
2023-04-15T05:48:01.299Z,101275.88
2023-04-15T05:50:28.180Z,101278.22
2023-04-15T05:52:56.122Z,101277.91
2023-04-15T05:55:22.926Z,101288.81
2023-04-15T05:57:49.703Z,101293.19
2023-04-15T06:00:16.705Z,101294.34
2023-04-15T06:02:43.821Z,101290.13
2023-04-15T06:05:11.944Z,101297.69
2023-04-15T06:07:39.489Z,101296.56
2023-04-15T06:10:07.540Z,101299.81
2023-04-15T06:12:34.630Z,101301.66
2023-04-15T06:15:01.586Z,101312.94
2023-04-15T06:19:56.034Z,101323.72
2023-04-15T06:22:23.857Z,101326.22
2023-04-15T06:24:51.809Z,101329.47
2023-04-15T06:27:19.316Z,101331.09
2023-04-15T06:29:46.407Z,101327.22
2023-04-15T06:32:13.417Z,101345.19
2023-04-15T06:34:40.475Z,101342.41
2023-04-15T06:37:07.235Z,101349.38
2023-04-15T06:39:34.134Z,101344.41
2023-04-15T06:42:01.704Z,101352.25
2023-04-15T06:44:30.790Z,101356.16
2023-04-15T06:46:59.045Z,101359.63
2023-04-15T06:49:26.876Z,101368.78
2023-04-15T06:51:53.892Z,101375.94
2023-04-15T06:54:21.099Z,101371.41
2023-04-15T06:56:48.260Z,101373.03
2023-04-15T06:59:15.537Z,101383.31
2023-04-15T07:01:42.459Z,101384.63
2023-04-15T07:04:09.532Z,101388.97
2023-04-15T07:06:36.364Z,101393.84
2023-04-15T07:09:04.860Z,101394.59
2023-04-15T07:11:32.167Z,101407.13
2023-04-15T07:13:59.122Z,101408.63
2023-04-15T07:16:27.900Z,101412.38
2023-04-15T07:18:56.258Z,101420.00
2023-04-15T07:21:23.720Z,101413.25
2023-04-15T07:23:50.652Z,101420.03
2023-04-15T07:26:17.509Z,101425.25
2023-04-15T07:28:44.369Z,101435.94
2023-04-15T07:31:11.351Z,101424.13
2023-04-15T07:33:38.304Z,101431.84
2023-04-15T07:36:05.315Z,101438.59
2023-04-15T07:38:32.198Z,101437.50
2023-04-15T07:40:59.811Z,101447.28
2023-04-15T07:43:27.041Z,101443.06
2023-04-15T07:45:53.841Z,101450.31
2023-04-15T07:48:20.702Z,101454.13
2023-04-15T07:50:47.509Z,101457.09
2023-04-15T07:53:14.806Z,101453.47
2023-04-15T07:55:41.752Z,101459.44
2023-04-15T07:58:08.477Z,101459.19
2023-04-15T08:00:35.472Z,101456.56
2023-04-15T08:03:03.475Z,101461.78
2023-04-15T08:05:30.515Z,101467.53
2023-04-15T08:07:57.547Z,101464.28
2023-04-15T08:10:24.305Z,101473.31
2023-04-15T08:12:54.444Z,101468.78
2023-04-15T08:15:21.655Z,101468.91
2023-04-15T08:17:48.597Z,101482.38
2023-04-15T08:20:15.557Z,101490.28
2023-04-15T08:22:42.759Z,101475.53
2023-04-15T08:25:10.545Z,101480.31
2023-04-15T08:27:37.701Z,101479.38
2023-04-15T08:30:05.328Z,101479.50
2023-04-15T08:32:32.333Z,101480.03
2023-04-15T08:34:59.365Z,101485.84
2023-04-15T08:37:26.980Z,101500.94
2023-04-15T08:39:53.801Z,101494.75
2023-04-15T08:42:27.994Z,101506.97
2023-04-15T08:44:55.806Z,101505.28
2023-04-15T08:47:28.758Z,101515.72
2023-04-15T08:49:58.408Z,101516.47
2023-04-15T08:52:26.808Z,101525.78
2023-04-15T08:55:01.457Z,101520.78
2023-04-15T08:57:29.183Z,101530.44
2023-04-15T08:59:57.408Z,101538.00
2023-04-15T09:02:26.437Z,101539.41
2023-04-15T09:04:53.735Z,101542.41
2023-04-15T09:07:20.635Z,101542.28
2023-04-15T09:09:48.816Z,101547.97
2023-04-15T09:12:17.110Z,101551.88
2023-04-15T09:14:47.348Z,101546.47
2023-04-15T09:17:18.834Z,101557.81
2023-04-15T09:19:45.674Z,101560.50
2023-04-15T09:22:13.590Z,101565.81
2023-04-15T09:24:42.472Z,101557.47
2023-04-15T09:27:09.876Z,101574.53
2023-04-15T09:29:37.380Z,101574.38
2023-04-15T09:32:12.083Z,101578.72
2023-04-15T09:34:38.921Z,101577.81
2023-04-15T09:37:07.631Z,101584.28
2023-04-15T09:39:52.213Z,101589.78
2023-04-15T09:42:24.700Z,101584.75
2023-04-15T09:44:55.593Z,101584.81
2023-04-15T09:47:30.631Z,101580.78
2023-04-15T09:49:59.346Z,101586.31
2023-04-15T09:52:26.332Z,101582.34
2023-04-15T09:54:57.862Z,101596.59
2023-04-15T09:57:24.935Z,101604.13
2023-04-15T09:59:52.357Z,101589.78
2023-04-15T10:02:23.577Z,101606.44
2023-04-15T10:04:52.603Z,101600.53
2023-04-15T10:07:22.635Z,101607.50
2023-04-15T10:09:50.197Z,101599.91
2023-04-15T10:12:21.021Z,101611.88
2023-04-15T10:14:59.610Z,101603.13
2023-04-15T10:17:33.837Z,101609.75
2023-04-15T10:20:03.156Z,101608.94
2023-04-15T10:22:33.472Z,101617.25
2023-04-15T10:25:01.389Z,101623.00
2023-04-15T10:27:29.261Z,101614.50
2023-04-15T10:29:57.557Z,101616.66
2023-04-15T10:32:25.673Z,101616.31
2023-04-15T10:34:54.722Z,101618.06
2023-04-15T10:37:33.461Z,101617.22
2023-04-15T10:40:00.425Z,101625.78
2023-04-15T10:42:35.515Z,101630.31
2023-04-15T10:45:02.661Z,101618.88
2023-04-15T10:47:29.734Z,101628.28
2023-04-15T10:50:02.580Z,101628.75
2023-04-15T10:52:30.168Z,101636.41
2023-04-15T10:55:21.504Z,101639.97
2023-04-15T10:57:53.495Z,101646.91
2023-04-15T11:00:24.640Z,101649.22
2023-04-15T11:03:05.339Z,101648.00
2023-04-15T11:05:52.704Z,101649.94
2023-04-15T11:08:20.749Z,101651.81
2023-04-15T11:10:47.589Z,101659.41
2023-04-15T11:13:22.161Z,101649.75
2023-04-15T11:15:49.664Z,101656.84
2023-04-15T11:18:22.252Z,101662.69
2023-04-15T11:20:55.209Z,101663.06
2023-04-15T11:23:34.340Z,101660.94
2023-04-15T11:26:05.686Z,101655.63
2023-04-15T11:28:33.665Z,101666.28
2023-04-15T11:31:18.124Z,101663.34
2023-04-15T11:33:47.717Z,101654.97
2023-04-15T11:36:14.879Z,101661.47
2023-04-15T11:38:47.455Z,101658.13
2023-04-15T11:41:14.749Z,101662.19
2023-04-15T11:43:41.627Z,101664.97
2023-04-15T11:46:09.130Z,101663.16
2023-04-15T11:48:36.827Z,101672.00
2023-04-15T11:51:05.486Z,101673.53
2023-04-15T11:53:46.248Z,101676.03
2023-04-15T11:56:24.722Z,101686.16
2023-04-15T11:59:02.474Z,101686.25
2023-04-15T12:01:32.404Z,101682.63
2023-04-15T12:04:01.789Z,101683.72
2023-04-15T12:06:35.259Z,101685.78
2023-04-15T12:09:07.589Z,101702.75
2023-04-15T12:11:40.513Z,101699.06
2023-04-15T12:14:31.429Z,101702.91
2023-04-15T12:17:08.139Z,101705.16
2023-04-15T12:19:41.988Z,101712.75
2023-04-15T12:22:14.154Z,101712.38
2023-04-15T12:24:44.097Z,101714.63
2023-04-15T12:27:16.461Z,101717.31
2023-04-15T12:29:44.165Z,101704.84
2023-04-15T12:32:13.368Z,101733.13
2023-04-15T12:34:58.533Z,101726.44
2023-04-15T12:37:26.205Z,101727.81
2023-04-15T12:39:54.158Z,101736.72
2023-04-15T12:42:22.709Z,101740.88
2023-04-15T12:44:49.739Z,101728.69
2023-04-15T12:47:16.739Z,101736.94
2023-04-15T12:49:43.783Z,101748.28
2023-04-15T12:52:10.574Z,101748.88
2023-04-15T12:54:37.415Z,101762.69
2023-04-15T12:57:06.804Z,101750.72
2023-04-15T12:59:35.215Z,101763.84
2023-04-15T13:02:03.421Z,101765.25
2023-04-15T13:04:31.503Z,101767.59
2023-04-15T13:06:58.619Z,101773.34
2023-04-15T13:09:26.041Z,101771.28
2023-04-15T13:11:53.211Z,101779.69
2023-04-15T13:14:20.172Z,101789.59
2023-04-15T13:16:47.392Z,101782.63
2023-04-15T13:19:14.518Z,101795.22
2023-04-15T13:21:41.519Z,101793.09
2023-04-15T13:24:08.615Z,101791.16
2023-04-15T13:26:36.383Z,101797.47
2023-04-15T13:29:03.327Z,101811.03
2023-04-15T13:31:30.391Z,101799.75
2023-04-15T13:33:57.843Z,101809.75
2023-04-15T13:36:24.830Z,101794.78
2023-04-15T13:38:52.182Z,101807.47
2023-04-15T13:41:20.209Z,101810.97
2023-04-15T13:43:47.439Z,101819.53
2023-04-15T13:46:14.945Z,101828.72
2023-04-15T13:48:41.981Z,101832.38
2023-04-15T13:51:08.886Z,101830.53
2023-04-15T13:53:39.076Z,101832.91
2023-04-15T13:56:10.503Z,101831.47
2023-04-15T13:58:38.452Z,101835.44
2023-04-15T14:01:07.111Z,101839.59
2023-04-15T14:03:37.999Z,101841.19
2023-04-15T14:06:06.593Z,101836.06
2023-04-15T14:08:33.897Z,101835.31
2023-04-15T14:11:00.978Z,101839.47
2023-04-15T14:13:27.921Z,101847.28
2023-04-15T14:15:54.933Z,101845.56
2023-04-15T14:18:21.993Z,101854.25
2023-04-15T14:20:48.968Z,101861.84
2023-04-15T14:23:15.866Z,101865.56
2023-04-15T14:25:42.916Z,101865.91
2023-04-15T14:28:09.848Z,101874.56
2023-04-15T14:30:37.282Z,101879.56
2023-04-15T14:33:04.505Z,101889.28
2023-04-15T14:35:31.551Z,101886.13
2023-04-15T14:37:58.646Z,101891.91
2023-04-15T14:40:25.961Z,101895.03
2023-04-15T14:42:52.941Z,101898.19
2023-04-15T14:45:19.843Z,101898.44
2023-04-15T14:47:47.374Z,101896.09
2023-04-15T14:50:14.528Z,101897.13
2023-04-15T14:52:41.507Z,101909.16
2023-04-15T14:55:13.219Z,101913.34
2023-04-15T14:57:41.524Z,101909.44
2023-04-15T15:00:11.926Z,101917.00
2023-04-15T15:02:40.808Z,101930.06
2023-04-15T15:05:10.220Z,101931.38
2023-04-15T15:07:38.221Z,101933.47
2023-04-15T15:10:06.284Z,101946.28
2023-04-15T15:12:34.061Z,101951.25
2023-04-15T15:15:05.010Z,101937.41
2023-04-15T15:17:36.419Z,101940.03
2023-04-15T15:20:04.200Z,101943.94
2023-04-15T15:22:31.099Z,101959.06
2023-04-15T15:24:59.387Z,101960.34
2023-04-15T15:27:26.223Z,101958.22
2023-04-15T15:29:53.250Z,101955.84
2023-04-15T15:32:20.176Z,101951.16
2023-04-15T15:34:47.163Z,101957.72
2023-04-15T15:37:14.001Z,101957.75
2023-04-15T15:39:41.002Z,101967.69
2023-04-15T15:42:08.182Z,101972.84
2023-04-15T15:44:36.455Z,101975.03
2023-04-15T15:47:03.358Z,101961.88
2023-04-15T15:49:30.651Z,101976.22
2023-04-15T15:51:57.766Z,101979.56
2023-04-15T15:54:25.485Z,101981.63
2023-04-15T15:56:52.420Z,101978.78
2023-04-15T15:59:19.321Z,101993.44
2023-04-15T16:01:46.283Z,101980.91
2023-04-15T16:04:13.468Z,101988.22
2023-04-15T16:06:40.927Z,101985.06
2023-04-15T16:09:07.894Z,101996.22
2023-04-15T16:11:34.857Z,101999.06
2023-04-15T16:14:01.986Z,102008.38
2023-04-15T16:16:30.194Z,102006.75
2023-04-15T16:19:00.352Z,102014.22
2023-04-15T16:21:27.530Z,102019.66
2023-04-15T16:23:54.611Z,102012.28
2023-04-15T16:26:21.986Z,102013.06
2023-04-15T16:28:48.781Z,102022.94
2023-04-15T16:31:15.836Z,102021.09
2023-04-15T16:33:42.807Z,102027.38
2023-04-15T16:36:09.645Z,102034.19
2023-04-15T16:38:36.501Z,102024.00
2023-04-15T16:41:03.396Z,102037.28
2023-04-15T16:43:30.143Z,102037.94
2023-04-15T16:45:57.013Z,102047.00
2023-04-15T16:48:24.053Z,102042.84
2023-04-15T16:50:50.891Z,102046.66
2023-04-15T16:53:18.333Z,102046.91
2023-04-15T16:55:45.198Z,102054.78
2023-04-15T16:58:12.192Z,102049.56
2023-04-15T17:00:39.049Z,102055.09
2023-04-15T17:03:06.536Z,102054.78
2023-04-15T17:05:33.940Z,102055.69
2023-04-15T17:08:01.212Z,102044.72
2023-04-15T17:10:28.495Z,102058.72
2023-04-15T17:12:58.578Z,102062.31
2023-04-15T17:15:25.587Z,102069.03
2023-04-15T17:17:52.592Z,102063.50
2023-04-15T17:20:20.145Z,102059.88
2023-04-15T17:22:48.891Z,102073.38
2023-04-15T17:25:16.120Z,102080.34
2023-04-15T17:27:42.925Z,102080.53
2023-04-15T17:30:10.261Z,102081.31
2023-04-15T17:32:37.489Z,102081.84
2023-04-15T17:35:06.574Z,102079.25
2023-04-15T17:37:34.567Z,102088.56
2023-04-15T17:40:01.571Z,102086.22
2023-04-15T17:42:28.859Z,102094.81
2023-04-15T17:44:55.745Z,102097.44
2023-04-15T17:47:22.546Z,102093.50
2023-04-15T17:49:49.281Z,102090.09
2023-04-15T17:52:16.416Z,102099.41
2023-04-15T17:54:43.213Z,102112.75
2023-04-15T17:57:10.041Z,102108.81
2023-04-15T17:59:37.245Z,102108.25
2023-04-15T18:02:04.418Z,102103.50
2023-04-15T18:04:31.795Z,102114.13
2023-04-15T18:06:58.939Z,102118.56
2023-04-15T18:09:26.016Z,102121.16
2023-04-15T18:11:52.892Z,102122.75
2023-04-15T18:14:31.141Z,102123.78
2023-04-15T18:17:04.844Z,102125.38
2023-04-15T18:19:32.053Z,102125.59
2023-04-15T18:22:00.684Z,102123.72
2023-04-15T18:24:28.331Z,102128.06
2023-04-15T18:26:55.197Z,102134.81
2023-04-15T18:29:22.483Z,102139.25
2023-04-15T18:31:49.379Z,102134.53
2023-04-15T18:34:16.263Z,102144.94
2023-04-15T18:36:43.116Z,102147.47
2023-04-15T18:39:10.588Z,102145.91
2023-04-15T18:41:37.492Z,102143.75
2023-04-15T18:44:04.360Z,102146.03
2023-04-15T18:46:31.409Z,102142.88
2023-04-15T18:48:58.234Z,102146.19
2023-04-15T18:51:26.014Z,102154.94
2023-04-15T18:53:52.881Z,102154.84
2023-04-15T18:56:19.723Z,102170.16
2023-04-15T18:59:18.796Z,102170.94
2023-04-15T19:01:33.506Z,102176.81
2023-04-15T19:04:00.471Z,102186.94
2023-04-15T19:06:27.483Z,102178.03
2023-04-15T19:08:54.861Z,102183.22
2023-04-15T19:11:21.992Z,102186.84
2023-04-15T19:13:49.192Z,102184.72
2023-04-15T19:16:16.306Z,102186.50
2023-04-15T19:18:43.363Z,102182.09
2023-04-15T19:21:16.089Z,102183.13
2023-04-15T19:23:43.289Z,102189.34
2023-04-15T19:26:11.689Z,102191.72
2023-04-15T19:28:38.557Z,102193.06
2023-04-15T19:31:05.803Z,102196.59
2023-04-15T19:33:32.643Z,102194.00
2023-04-15T19:36:04.535Z,102199.66
2023-04-15T19:38:32.549Z,102212.66
2023-04-15T19:40:59.467Z,102192.88
2023-04-15T19:43:26.428Z,102198.31
2023-04-15T19:45:54.866Z,102205.56
2023-04-15T19:48:23.323Z,102203.19
2023-04-15T19:50:50.659Z,102213.59
2023-04-15T19:53:18.030Z,102215.41
2023-04-15T19:55:44.988Z,102218.22
2023-04-15T19:58:11.932Z,102214.03
2023-04-15T20:00:38.726Z,102218.78
2023-04-15T20:03:05.941Z,102221.41
2023-04-15T20:05:32.975Z,102222.19
2023-04-15T20:08:01.325Z,102231.81
2023-04-15T20:10:28.297Z,102222.41
2023-04-15T20:12:55.159Z,102216.19
2023-04-15T20:15:24.014Z,102220.34
2023-04-15T20:17:51.314Z,102219.34
2023-04-15T20:20:18.637Z,102218.09
2023-04-15T20:22:45.674Z,102224.34
2023-04-15T20:25:12.662Z,102227.16
2023-04-15T20:27:39.511Z,102213.94
2023-04-15T20:30:07.495Z,102227.50
2023-04-15T20:32:36.078Z,102233.47
2023-04-15T20:35:05.848Z,102231.91
2023-04-15T20:37:33.745Z,102227.00
2023-04-15T20:40:01.828Z,102237.69
2023-04-15T20:42:33.435Z,102237.69
2023-04-15T20:45:00.578Z,102235.06
2023-04-15T20:47:27.546Z,102233.47
2023-04-15T20:49:54.532Z,102220.03
2023-04-15T20:52:21.327Z,102237.19
2023-04-15T20:54:48.125Z,102231.22
2023-04-15T20:57:14.986Z,102227.81
2023-04-15T20:59:41.976Z,102245.00
2023-04-15T21:02:09.098Z,102238.78
2023-04-15T21:04:38.077Z,102241.63
2023-04-15T21:07:04.986Z,102249.66
2023-04-15T21:09:31.847Z,102239.47
2023-04-15T21:12:01.729Z,102241.06
2023-04-15T21:14:29.641Z,102253.50
2023-04-15T21:16:59.771Z,102242.31
2023-04-15T21:19:26.626Z,102239.72
2023-04-15T21:21:53.416Z,102246.47
2023-04-15T21:24:20.217Z,102248.09
2023-04-15T21:26:47.062Z,102253.03
2023-04-15T21:29:14.070Z,102247.03
2023-04-15T21:31:41.341Z,102257.44
2023-04-15T21:34:08.651Z,102265.25
2023-04-15T21:36:35.714Z,102253.28
2023-04-15T21:39:02.709Z,102258.22
2023-04-15T21:41:29.769Z,102260.06
2023-04-15T21:43:56.882Z,102253.28
2023-04-15T21:46:25.760Z,102256.88
2023-04-15T21:49:00.093Z,102256.09
2023-04-15T21:51:27.833Z,102249.09
2023-04-15T21:53:54.638Z,102257.44
2023-04-15T21:56:24.293Z,102267.31
2023-04-15T21:58:54.382Z,102263.91
2023-04-15T22:01:21.200Z,102276.69
2023-04-15T22:03:48.264Z,102273.84
2023-04-15T22:06:15.984Z,102273.63
2023-04-15T22:08:55.327Z,102274.66
2023-04-15T22:11:27.463Z,102283.25
2023-04-15T22:13:54.823Z,102281.44
2023-04-15T22:16:21.851Z,102283.81
2023-04-15T22:18:49.059Z,102280.41
2023-04-15T22:21:16.068Z,102281.19
2023-04-15T22:23:47.307Z,102284.16
2023-04-15T22:26:14.384Z,102284.16
2023-04-15T22:28:41.863Z,102282.31
2023-04-15T22:31:08.839Z,102284.94
2023-04-15T22:33:35.897Z,102289.09
2023-04-15T22:36:02.804Z,102294.06
2023-04-15T22:38:29.642Z,102288.88
2023-04-15T22:40:56.479Z,102286.03
2023-04-15T22:43:23.322Z,102291.03
2023-04-15T22:45:50.867Z,102290.56
2023-04-15T22:48:18.561Z,102302.09
2023-04-15T22:50:45.553Z,102299.47
2023-04-15T22:53:12.947Z,102298.47
2023-04-15T22:55:39.793Z,102301.06
